createdAt,value
2023-03-06T00:00:34.247Z,100.00
2023-03-06T00:03:01.079Z,100.00
2023-03-06T00:05:28.076Z,100.00
2023-03-06T00:07:54.871Z,100.00
2023-03-06T00:10:24.811Z,100.00
2023-03-06T00:12:56.659Z,100.00
2023-03-06T00:15:24.510Z,100.00
2023-03-06T00:17:51.175Z,100.00
2023-03-06T00:20:18.907Z,100.00
2023-03-06T00:22:45.678Z,100.00
2023-03-06T00:25:15.216Z,100.00
2023-03-06T00:27:42.354Z,100.00
2023-03-06T00:30:12.846Z,100.00
2023-03-06T00:32:43.058Z,100.00
2023-03-06T00:35:10.889Z,100.00
2023-03-06T00:37:38.059Z,100.00
2023-03-06T00:40:06.670Z,100.00
2023-03-06T00:42:33.338Z,100.00
2023-03-06T00:45:00.014Z,100.00
2023-03-06T00:47:26.773Z,100.00
2023-03-06T00:49:53.425Z,100.00
2023-03-06T00:52:20.132Z,100.00
2023-03-06T00:54:46.748Z,100.00
2023-03-06T00:57:13.569Z,100.00
2023-03-06T00:59:40.775Z,100.00
2023-03-06T01:02:08.068Z,100.00
2023-03-06T01:04:34.788Z,100.00
2023-03-06T01:07:01.504Z,100.00
2023-03-06T01:09:29.273Z,100.00
2023-03-06T01:11:56.142Z,100.00
2023-03-06T01:14:23.037Z,100.00
2023-03-06T01:16:49.813Z,100.00
2023-03-06T01:19:17.943Z,100.00
2023-03-06T01:21:45.432Z,100.00
2023-03-06T01:24:12.391Z,100.00
2023-03-06T01:26:38.952Z,100.00
2023-03-06T01:29:06.369Z,100.00
2023-03-06T01:31:33.273Z,100.00
2023-03-06T01:33:59.989Z,100.00
2023-03-06T01:36:26.721Z,100.00
2023-03-06T01:38:53.650Z,100.00
2023-03-06T01:41:21.555Z,100.00
2023-03-06T01:43:48.684Z,100.00
2023-03-06T01:46:21.277Z,100.00
2023-03-06T01:48:50.318Z,100.00
2023-03-06T01:51:17.144Z,100.00
2023-03-06T01:53:46.154Z,100.00
2023-03-06T01:56:14.750Z,100.00
2023-03-06T01:58:43.945Z,100.00
2023-03-06T02:01:12.914Z,100.00
2023-03-06T02:03:41.936Z,100.00
2023-03-06T02:06:09.476Z,100.00
2023-03-06T02:08:36.276Z,100.00
2023-03-06T02:11:08.997Z,100.00
2023-03-06T02:13:37.136Z,100.00
2023-03-06T02:16:03.917Z,100.00
2023-03-06T02:18:30.769Z,100.00
2023-03-06T02:21:00.566Z,100.00
2023-03-06T02:23:27.171Z,100.00
2023-03-06T02:25:56.430Z,100.00
2023-03-06T02:28:24.908Z,100.00
2023-03-06T02:30:53.833Z,100.00
2023-03-06T02:33:26.853Z,100.00
2023-03-06T02:36:00.385Z,100.00
2023-03-06T02:38:34.257Z,100.00
2023-03-06T02:41:05.204Z,100.00
2023-03-06T02:43:35.516Z,100.00
2023-03-06T02:46:02.720Z,100.00
2023-03-06T02:48:29.517Z,100.00
2023-03-06T02:50:56.265Z,100.00
2023-03-06T02:53:23.766Z,100.00
2023-03-06T02:55:51.300Z,100.00
2023-03-06T02:58:19.696Z,100.00
2023-03-06T03:00:48.477Z,100.00
2023-03-06T03:03:15.211Z,100.00
2023-03-06T03:05:41.941Z,100.00
2023-03-06T03:08:14.609Z,100.00
2023-03-06T03:10:41.306Z,100.00
2023-03-06T03:13:08.168Z,100.00
2023-03-06T03:15:35.569Z,100.00
2023-03-06T03:18:03.144Z,100.00
2023-03-06T03:20:29.866Z,100.00
2023-03-06T03:22:56.548Z,100.00
2023-03-06T03:25:25.894Z,100.00
2023-03-06T03:27:55.225Z,100.00
2023-03-06T03:30:22.658Z,100.00
2023-03-06T03:32:49.913Z,100.00
2023-03-06T03:35:16.961Z,100.00
2023-03-06T03:37:43.812Z,100.00
2023-03-06T03:40:11.587Z,100.00
2023-03-06T03:42:38.496Z,100.00
2023-03-06T03:45:06.704Z,100.00
2023-03-06T03:47:33.441Z,100.00
2023-03-06T03:50:00.457Z,100.00
2023-03-06T03:52:27.226Z,100.00
2023-03-06T03:54:54.262Z,100.00
2023-03-06T03:57:21.058Z,100.00
2023-03-06T03:59:51.032Z,100.00
2023-03-06T04:02:29.710Z,100.00
2023-03-06T04:05:16.592Z,100.00
2023-03-06T04:07:43.711Z,100.00
2023-03-06T04:10:12.221Z,100.00
2023-03-06T04:12:39.041Z,100.00
2023-03-06T04:15:07.881Z,100.00
2023-03-06T04:17:35.420Z,100.00
2023-03-06T04:20:04.991Z,100.00
2023-03-06T04:22:32.562Z,100.00
2023-03-06T04:25:00.245Z,100.00
2023-03-06T04:27:27.034Z,100.00
2023-03-06T04:29:56.197Z,100.00
2023-03-06T04:32:24.095Z,100.00
2023-03-06T04:34:51.180Z,100.00
2023-03-06T04:37:23.811Z,100.00
2023-03-06T04:39:51.644Z,100.00
2023-03-06T04:42:18.643Z,100.00
2023-03-06T04:44:45.781Z,100.00
2023-03-06T04:47:12.822Z,100.00
2023-03-06T04:49:39.496Z,100.00
2023-03-06T04:52:06.893Z,100.00
2023-03-06T04:54:33.711Z,100.00
2023-03-06T04:57:00.467Z,100.00
2023-03-06T04:59:27.326Z,100.00
2023-03-06T05:01:55.283Z,100.00
2023-03-06T05:04:21.957Z,100.00
2023-03-06T05:06:49.446Z,100.00
2023-03-06T05:09:16.135Z,100.00
2023-03-06T05:11:42.847Z,100.00
2023-03-06T05:14:09.525Z,100.00
2023-03-06T05:16:36.473Z,100.00
2023-03-06T05:19:03.297Z,100.00
2023-03-06T05:21:30.015Z,100.00
2023-03-06T05:23:56.869Z,100.00
2023-03-06T05:26:23.520Z,100.00
2023-03-06T05:28:50.226Z,100.00
2023-03-06T05:31:17.213Z,100.00
2023-03-06T05:33:44.051Z,100.00
2023-03-06T05:36:11.081Z,100.00
2023-03-06T05:38:37.723Z,100.00
2023-03-06T05:41:04.595Z,100.00
2023-03-06T05:43:31.130Z,100.00
2023-03-06T05:46:05.949Z,100.00
2023-03-06T05:48:34.108Z,100.00
2023-03-06T05:51:02.123Z,100.00
2023-03-06T05:53:29.632Z,100.00
2023-03-06T05:55:58.454Z,100.00
2023-03-06T05:58:25.653Z,100.00
2023-03-06T06:00:52.582Z,100.00
2023-03-06T06:03:19.754Z,100.00
2023-03-06T06:05:46.527Z,100.00
2023-03-06T06:08:13.182Z,100.00
2023-03-06T06:10:39.940Z,100.00
2023-03-06T06:13:06.677Z,100.00
2023-03-06T06:15:33.696Z,100.00
2023-03-06T06:18:00.729Z,100.00
2023-03-06T06:20:28.477Z,100.00
2023-03-06T06:22:55.491Z,100.00
2023-03-06T06:25:22.215Z,100.00
2023-03-06T06:27:48.948Z,100.00
2023-03-06T06:30:15.933Z,100.00
2023-03-06T06:32:42.776Z,100.00
2023-03-06T06:35:09.798Z,100.00
2023-03-06T06:37:36.463Z,100.00
2023-03-06T06:40:04.596Z,100.00
2023-03-06T06:42:38.091Z,100.00
2023-03-06T06:45:07.263Z,100.00
2023-03-06T06:47:34.291Z,100.00
2023-03-06T06:50:01.090Z,100.00
2023-03-06T06:52:27.880Z,100.00
2023-03-06T06:54:54.930Z,100.00
2023-03-06T06:57:22.154Z,100.00
2023-03-06T06:59:49.703Z,100.00
2023-03-06T07:02:17.535Z,100.00
2023-03-06T07:05:02.002Z,100.00
2023-03-06T07:07:30.150Z,100.00
2023-03-06T07:09:56.863Z,100.00
2023-03-06T07:12:23.569Z,100.00
2023-03-06T07:14:50.107Z,100.00
2023-03-06T07:17:16.746Z,100.00
2023-03-06T07:19:43.390Z,100.00
2023-03-06T07:22:10.053Z,100.00
2023-03-06T07:24:36.730Z,100.00
2023-03-06T07:27:03.421Z,100.00
2023-03-06T07:29:32.499Z,100.00
2023-03-06T07:31:59.190Z,100.00
2023-03-06T07:34:25.853Z,100.00
2023-03-06T07:36:52.652Z,100.00
2023-03-06T07:39:19.259Z,100.00
2023-03-06T07:41:45.778Z,100.00
2023-03-06T07:44:12.658Z,100.00
2023-03-06T07:46:39.246Z,100.00
2023-03-06T07:49:06.020Z,100.00
2023-03-06T07:51:32.987Z,100.00
2023-03-06T07:53:59.574Z,100.00
2023-03-06T07:56:26.264Z,100.00
2023-03-06T07:58:52.899Z,100.00
2023-03-06T08:01:23.530Z,100.00
2023-03-06T08:03:50.645Z,100.00
2023-03-06T08:06:20.395Z,100.00
2023-03-06T08:08:48.596Z,100.00
2023-03-06T08:11:16.945Z,100.00
2023-03-06T08:13:43.924Z,100.00
2023-03-06T08:16:10.945Z,100.00
2023-03-06T08:18:39.800Z,100.00
2023-03-06T08:21:10.944Z,100.00
2023-03-06T08:23:37.827Z,100.00
2023-03-06T08:26:16.056Z,100.00
2023-03-06T08:28:43.544Z,100.00
2023-03-06T08:31:20.550Z,100.00
2023-03-06T08:33:47.798Z,100.00
2023-03-06T08:36:14.348Z,100.00
2023-03-06T08:38:41.121Z,100.00
2023-03-06T08:41:07.879Z,100.00
2023-03-06T08:43:35.803Z,100.00
2023-03-06T08:46:03.130Z,100.00
2023-03-06T08:48:30.209Z,100.00
2023-03-06T08:50:56.792Z,100.00
2023-03-06T08:53:40.474Z,100.00
2023-03-06T08:56:19.310Z,100.00
2023-03-06T08:58:46.781Z,100.00
2023-03-06T09:01:16.447Z,100.00
2023-03-06T09:03:43.613Z,100.00
2023-03-06T09:06:10.398Z,100.00
2023-03-06T09:08:37.036Z,100.00
2023-03-06T09:11:04.181Z,100.00
2023-03-06T09:13:31.159Z,100.00
2023-03-06T09:15:57.711Z,100.00
2023-03-06T09:18:24.696Z,100.00
2023-03-06T09:20:52.181Z,100.00
2023-03-06T09:23:18.728Z,100.00
2023-03-06T09:25:46.203Z,100.00
2023-03-06T09:28:13.014Z,100.00
2023-03-06T09:30:40.895Z,100.00
2023-03-06T09:33:07.947Z,100.00
2023-03-06T09:35:34.978Z,100.00
2023-03-06T09:38:01.615Z,100.00
2023-03-06T09:40:55.296Z,100.00
2023-03-06T09:43:30.130Z,100.00
2023-03-06T09:45:58.108Z,100.00
2023-03-06T09:49:00.050Z,100.00
2023-03-06T09:51:48.480Z,100.00
2023-03-06T09:54:16.316Z,100.00
2023-03-06T09:56:50.472Z,100.00
2023-03-06T09:59:23.895Z,100.00
2023-03-06T10:02:01.629Z,100.00
2023-03-06T10:04:37.970Z,100.00
2023-03-06T10:07:12.288Z,100.00
2023-03-06T10:09:48.106Z,100.00
2023-03-06T10:12:24.798Z,99.49
2023-03-06T10:15:14.764Z,100.00
2023-03-06T10:17:43.244Z,100.00
2023-03-06T10:20:28.383Z,100.00
2023-03-06T10:23:07.264Z,100.00
2023-03-06T10:25:42.786Z,100.00
2023-03-06T10:28:19.439Z,100.00
2023-03-06T10:30:57.629Z,100.00
2023-03-06T10:33:42.264Z,100.00
2023-03-06T10:36:15.043Z,100.00
2023-03-06T10:38:42.646Z,100.00
2023-03-06T10:41:11.941Z,100.00
2023-03-06T10:43:41.630Z,100.00
2023-03-06T10:46:10.882Z,99.58
2023-03-06T10:48:41.688Z,97.47
2023-03-06T10:51:18.469Z,93.75
2023-03-06T10:53:53.417Z,91.63
2023-03-06T10:56:49.638Z,96.02
2023-03-06T10:59:18.835Z,95.24
2023-03-06T11:01:57.383Z,96.76
2023-03-06T11:04:33.333Z,98.78
2023-03-06T11:07:12.235Z,93.79
2023-03-06T11:09:39.064Z,93.03
2023-03-06T11:12:14.933Z,92.56
2023-03-06T11:14:41.940Z,92.54
2023-03-06T11:17:27.536Z,92.63
2023-03-06T11:20:14.413Z,95.59
2023-03-06T11:22:41.882Z,93.93
2023-03-06T11:25:20.938Z,94.91
2023-03-06T11:28:16.314Z,98.88
2023-03-06T11:30:47.388Z,99.18
2023-03-06T11:33:25.511Z,100.00
2023-03-06T11:36:03.493Z,100.00
2023-03-06T11:38:38.834Z,100.00
2023-03-06T11:41:13.914Z,100.00
2023-03-06T11:43:50.931Z,100.00
2023-03-06T11:46:24.946Z,100.00
2023-03-06T11:49:01.254Z,100.00
2023-03-06T11:51:33.292Z,100.00
2023-03-06T11:54:00.516Z,100.00
2023-03-06T11:56:56.290Z,100.00
2023-03-06T11:59:56.031Z,99.21
2023-03-06T12:02:57.884Z,99.72
2023-03-06T12:05:37.904Z,100.00
2023-03-06T12:08:17.661Z,100.00
2023-03-06T12:10:52.687Z,97.16
2023-03-06T12:13:19.369Z,96.57
2023-03-06T12:15:45.864Z,97.46
2023-03-06T12:18:18.318Z,100.00
2023-03-06T12:20:53.852Z,100.00
2023-03-06T12:23:42.467Z,94.50
2023-03-06T12:26:20.947Z,96.63
2023-03-06T12:28:53.338Z,96.62
2023-03-06T12:31:26.452Z,94.25
2023-03-06T12:34:26.068Z,95.33
2023-03-06T12:37:20.277Z,95.41
2023-03-06T12:40:09.905Z,95.97
2023-03-06T12:42:59.932Z,94.51
2023-03-06T12:45:34.291Z,93.97
2023-03-06T12:48:02.095Z,93.48
2023-03-06T12:50:32.359Z,96.68
2023-03-06T12:53:04.322Z,100.00
2023-03-06T12:55:45.222Z,100.00
2023-03-06T12:58:30.233Z,100.00
2023-03-06T13:01:04.333Z,100.00
2023-03-06T13:03:41.335Z,100.00
2023-03-06T13:06:32.401Z,100.00
2023-03-06T13:09:37.352Z,100.00
2023-03-06T13:12:20.043Z,99.92
2023-03-06T13:14:54.787Z,100.00
2023-03-06T13:17:37.880Z,100.00
2023-03-06T13:20:13.778Z,100.00
2023-03-06T13:22:45.164Z,99.39
2023-03-06T13:25:21.171Z,98.39
2023-03-06T13:27:53.832Z,96.34
2023-03-06T13:30:27.965Z,91.70
2023-03-06T13:32:55.499Z,94.53
2023-03-06T13:35:34.662Z,90.09
2023-03-06T13:38:01.545Z,91.76
2023-03-06T13:40:33.883Z,92.12
2023-03-06T13:43:09.548Z,93.65
2023-03-06T13:45:36.106Z,96.24
2023-03-06T13:48:30.386Z,98.76
2023-03-06T13:50:50.978Z,100.00
2023-03-06T13:53:35.590Z,99.77
2023-03-06T13:56:17.012Z,100.00
2023-03-06T13:59:47.146Z,100.00
2023-03-06T14:02:23.488Z,100.00
2023-03-06T14:04:58.657Z,100.00
2023-03-06T14:07:26.698Z,100.00
2023-03-06T14:10:14.971Z,100.00
2023-03-06T14:12:54.358Z,100.00
2023-03-06T14:15:25.969Z,100.00
2023-03-06T14:18:06.947Z,100.00
2023-03-06T14:20:42.404Z,100.00
2023-03-06T14:23:21.962Z,100.00
2023-03-06T14:25:54.808Z,100.00
2023-03-06T14:28:30.313Z,100.00
2023-03-06T14:30:58.515Z,100.00
2023-03-06T14:34:01.629Z,100.00
2023-03-06T14:36:34.391Z,100.00
2023-03-06T14:39:23.061Z,100.00
2023-03-06T14:41:49.627Z,100.00
2023-03-06T14:44:23.291Z,100.00
2023-03-06T14:46:52.523Z,100.00
2023-03-06T14:49:21.248Z,100.00
2023-03-06T14:51:56.059Z,100.00
2023-03-06T14:54:29.822Z,100.00
2023-03-06T14:57:02.725Z,100.00
2023-03-06T14:59:34.048Z,97.16
2023-03-06T15:02:05.324Z,98.44
2023-03-06T15:04:41.995Z,100.00
2023-03-06T15:07:16.237Z,98.47
2023-03-06T15:09:51.359Z,97.91
2023-03-06T15:12:21.200Z,98.16
2023-03-06T15:14:59.740Z,97.09
2023-03-06T15:17:42.940Z,97.01
2023-03-06T15:20:49.233Z,95.87
2023-03-06T15:23:26.480Z,92.09
2023-03-06T15:25:56.448Z,95.89
2023-03-06T15:28:27.837Z,94.47
2023-03-06T15:31:02.982Z,92.46
2023-03-06T15:33:29.898Z,89.50
2023-03-06T15:36:02.351Z,89.17
2023-03-06T15:38:36.488Z,89.80
2023-03-06T15:41:04.983Z,89.43
2023-03-06T15:43:39.443Z,90.42
2023-03-06T15:46:07.537Z,90.51
2023-03-06T15:48:35.336Z,89.99
2023-03-06T15:51:03.098Z,89.33
2023-03-06T15:53:29.703Z,89.89
2023-03-06T15:55:58.389Z,89.38
2023-03-06T15:58:30.483Z,90.04
2023-03-06T16:00:57.144Z,84.90
2023-03-06T16:03:24.008Z,83.93
2023-03-06T16:05:50.585Z,85.97
2023-03-06T16:08:17.342Z,87.12
2023-03-06T16:10:45.656Z,87.58
2023-03-06T16:13:23.256Z,87.63
2023-03-06T16:15:50.628Z,90.47
2023-03-06T16:18:18.582Z,89.56
2023-03-06T16:20:45.374Z,91.58
2023-03-06T16:23:12.136Z,93.69
2023-03-06T16:25:41.277Z,93.68
2023-03-06T16:28:16.428Z,93.21
2023-03-06T16:30:44.521Z,89.53
2023-03-06T16:33:11.912Z,88.84
2023-03-06T16:35:38.717Z,91.15
2023-03-06T16:38:05.415Z,89.47
2023-03-06T16:40:37.640Z,90.40
2023-03-06T16:43:05.134Z,92.14
2023-03-06T16:45:39.147Z,93.37
2023-03-06T16:48:06.666Z,89.94
2023-03-06T16:50:38.198Z,89.66
2023-03-06T16:53:05.619Z,94.10
2023-03-06T16:55:32.384Z,93.63
2023-03-06T16:57:59.086Z,94.41
2023-03-06T17:00:31.149Z,97.27
2023-03-06T17:02:58.131Z,98.22
2023-03-06T17:05:25.049Z,97.98
2023-03-06T17:07:51.692Z,99.09
2023-03-06T17:10:22.098Z,100.00
2023-03-06T17:12:48.919Z,98.32
2023-03-06T17:15:15.813Z,98.26
2023-03-06T17:17:42.671Z,97.66
2023-03-06T17:20:14.373Z,98.86
2023-03-06T17:22:41.631Z,100.00
2023-03-06T17:25:09.510Z,100.00
2023-03-06T17:27:36.953Z,100.00
2023-03-06T17:30:04.955Z,100.00
2023-03-06T17:32:32.866Z,100.00
2023-03-06T17:34:59.859Z,100.00
2023-03-06T17:37:26.546Z,100.00
2023-03-06T17:39:53.280Z,100.00
2023-03-06T17:42:20.185Z,100.00
2023-03-06T17:44:46.797Z,100.00
2023-03-06T17:47:13.365Z,100.00
2023-03-06T17:49:39.962Z,100.00
2023-03-06T17:52:06.945Z,100.00
2023-03-06T17:54:33.693Z,100.00
2023-03-06T17:57:03.249Z,100.00
2023-03-06T17:59:30.995Z,100.00
2023-03-06T18:02:00.781Z,100.00
2023-03-06T18:04:31.150Z,100.00
2023-03-06T18:06:58.312Z,100.00
2023-03-06T18:09:25.109Z,100.00
2023-03-06T18:11:51.594Z,100.00
2023-03-06T18:14:18.429Z,99.60
2023-03-06T18:16:46.664Z,100.00
2023-03-06T18:19:13.580Z,98.71
2023-03-06T18:21:40.122Z,99.69
2023-03-06T18:24:07.549Z,98.47
2023-03-06T18:26:34.405Z,97.59
2023-03-06T18:29:04.359Z,99.58
2023-03-06T18:31:34.495Z,100.00
2023-03-06T18:34:07.306Z,100.00
2023-03-06T18:36:34.811Z,100.00
2023-03-06T18:39:03.753Z,100.00
2023-03-06T18:41:31.378Z,99.67
2023-03-06T18:44:00.526Z,99.55
2023-03-06T18:46:36.188Z,99.29
2023-03-06T18:49:04.003Z,100.00
2023-03-06T18:51:30.766Z,100.00
2023-03-06T18:53:58.652Z,99.13
2023-03-06T18:56:25.524Z,98.79
2023-03-06T18:58:52.727Z,98.49
2023-03-06T19:01:20.677Z,97.70
2023-03-06T19:03:47.584Z,97.10
2023-03-06T19:06:16.921Z,98.01
2023-03-06T19:08:43.587Z,98.00
2023-03-06T19:11:15.523Z,98.92
2023-03-06T19:13:42.523Z,98.78
2023-03-06T19:16:10.468Z,98.76
2023-03-06T19:18:38.779Z,99.13
2023-03-06T19:21:13.260Z,99.00
2023-03-06T19:23:40.332Z,98.68
2023-03-06T19:26:07.567Z,97.83
2023-03-06T19:28:36.601Z,97.93
2023-03-06T19:31:21.286Z,98.79
2023-03-06T19:33:49.910Z,98.00
2023-03-06T19:36:17.485Z,98.51
2023-03-06T19:38:44.212Z,99.60
2023-03-06T19:41:13.595Z,100.00
2023-03-06T19:43:41.227Z,100.00
2023-03-06T19:46:14.204Z,100.00
2023-03-06T19:48:42.395Z,100.00
2023-03-06T19:51:09.766Z,100.00
2023-03-06T19:53:37.769Z,100.00
2023-03-06T19:56:08.316Z,100.00
2023-03-06T19:58:35.590Z,100.00
2023-03-06T20:01:14.217Z,100.00
2023-03-06T20:03:41.769Z,100.00
2023-03-06T20:06:14.109Z,100.00
2023-03-06T20:08:42.049Z,100.00
2023-03-06T20:11:20.170Z,100.00
2023-03-06T20:13:47.806Z,100.00
2023-03-06T20:16:15.613Z,100.00
2023-03-06T20:18:42.546Z,100.00
2023-03-06T20:21:09.479Z,100.00
2023-03-06T20:23:36.764Z,100.00
2023-03-06T20:26:06.033Z,100.00
2023-03-06T20:28:33.405Z,100.00
2023-03-06T20:31:06.509Z,100.00
2023-03-06T20:33:33.345Z,100.00
2023-03-06T20:36:00.162Z,100.00
2023-03-06T20:38:26.863Z,100.00
2023-03-06T20:40:57.773Z,100.00
2023-03-06T20:43:24.391Z,100.00
2023-03-06T20:46:03.341Z,100.00
2023-03-06T20:48:30.092Z,100.00
2023-03-06T20:51:09.147Z,100.00
2023-03-06T20:53:36.351Z,100.00
2023-03-06T20:56:03.046Z,100.00
2023-03-06T20:58:31.846Z,100.00
2023-03-06T21:00:59.903Z,100.00
2023-03-06T21:03:27.775Z,100.00
2023-03-06T21:05:54.304Z,100.00
2023-03-06T21:08:21.385Z,100.00
2023-03-06T21:10:48.137Z,100.00
2023-03-06T21:13:15.692Z,100.00
2023-03-06T21:15:43.275Z,100.00
2023-03-06T21:18:11.304Z,100.00
2023-03-06T21:20:39.429Z,100.00
2023-03-06T21:23:06.993Z,100.00
2023-03-06T21:25:34.156Z,100.00
2023-03-06T21:28:01.060Z,100.00
2023-03-06T21:30:29.330Z,100.00
2023-03-06T21:32:56.481Z,100.00
2023-03-06T21:35:23.028Z,100.00
2023-03-06T21:37:49.763Z,100.00
2023-03-06T21:40:16.845Z,100.00
2023-03-06T21:42:43.534Z,100.00
2023-03-06T21:45:10.491Z,100.00
2023-03-06T21:47:38.927Z,100.00
2023-03-06T21:50:12.133Z,100.00
2023-03-06T21:52:38.847Z,100.00
2023-03-06T21:55:06.493Z,100.00
2023-03-06T21:57:33.267Z,100.00
2023-03-06T21:59:59.966Z,100.00
2023-03-06T22:02:26.534Z,100.00
2023-03-06T22:04:53.491Z,100.00
2023-03-06T22:07:20.722Z,100.00
2023-03-06T22:09:47.595Z,100.00
2023-03-06T22:12:14.708Z,100.00
2023-03-06T22:14:43.560Z,100.00
2023-03-06T22:17:10.118Z,100.00
2023-03-06T22:19:36.821Z,100.00
2023-03-06T22:22:04.272Z,100.00
2023-03-06T22:24:31.930Z,100.00
2023-03-06T22:26:59.236Z,100.00
2023-03-06T22:29:26.036Z,100.00
2023-03-06T22:31:53.105Z,100.00
2023-03-06T22:34:19.738Z,100.00
2023-03-06T22:36:46.682Z,100.00
2023-03-06T22:39:13.767Z,100.00
2023-03-06T22:41:40.699Z,100.00
2023-03-06T22:44:07.318Z,100.00
2023-03-06T22:46:33.976Z,100.00
2023-03-06T22:49:01.537Z,100.00
2023-03-06T22:51:29.359Z,100.00
2023-03-06T22:53:56.023Z,100.00
2023-03-06T22:56:23.130Z,100.00
2023-03-06T22:58:49.915Z,100.00
2023-03-06T23:01:21.730Z,100.00
2023-03-06T23:03:53.929Z,100.00
2023-03-06T23:06:21.834Z,100.00
2023-03-06T23:08:51.576Z,100.00
2023-03-06T23:11:19.752Z,100.00
2023-03-06T23:14:05.975Z,100.00
2023-03-06T23:16:51.281Z,100.00
2023-03-06T23:19:36.647Z,100.00
2023-03-06T23:22:21.891Z,100.00
2023-03-06T23:25:07.643Z,100.00
2023-03-06T23:27:35.566Z,100.00
2023-03-06T23:30:03.465Z,100.00
2023-03-06T23:32:34.209Z,100.00
2023-03-06T23:35:02.075Z,100.00
2023-03-06T23:37:28.681Z,100.00
2023-03-06T23:39:55.426Z,100.00
2023-03-06T23:42:22.869Z,100.00
2023-03-06T23:44:49.471Z,100.00
2023-03-06T23:47:17.201Z,100.00
2023-03-06T23:49:43.829Z,100.00
2023-03-06T23:52:10.602Z,100.00
2023-03-06T23:54:37.182Z,100.00
2023-03-06T23:57:03.999Z,100.00
2023-03-06T23:59:30.769Z,100.00
